»·PEaware :: N9135K KTOA-KOXR

N9135K :: KTOA-KOXR

FLIGHT INFORMATION

Flight Status: Arrived
Operator: Privately registered:
United States
More flights under this callsign
Pilot: John R. (31973)
Aircraft: CESSNA 172 SKYHAWK
(C172)
More flights by this aircraft type
Origin: KTOA Zamperini
United States
Destination: KOXR Oxnard
United States
More flights between these airports :: More routes between these airports
Route: LAX170 LIMBO V64 SMO125 SMO VNY
File this flight plan on PilotEdge
Remarks: TEC route SCTP26
Altitude:
(Current/Filed)
4,000ft
Speed:
(Current/Filed)
100kts
Departed: 30-Jan-21 07:26 PM
Arrived: 30-Jan-21 08:09 PM
Distance/Time
Traveled:
49nm/0:43
Distance/Time
To Go:
Arrived

Flight Plot

Page will automatically refresh every two minutes.

Flight plan parsing failed; only flown route is shown


Map Options




Map Legend


Flown Route
Filed Route
Departure Airport
Arrival Airport
Navaid (VOR, NDB)
Fix

Horizontal Profiles

Position Reports

Time Latitude Longitude Heading Altitude Ground
Speed
30-Jan-21 19:15 33.797695 -118.336600 218 106ft 0kts
30-Jan-21 19:16 33.797695 -118.336600 218 106ft 0kts
30-Jan-21 19:17 33.797695 -118.336600 218 106ft 0kts
30-Jan-21 19:18 33.797694 -118.336601 218 106ft 0kts
30-Jan-21 19:19 33.797694 -118.336601 218 106ft 0kts
30-Jan-21 19:20 33.797694 -118.336601 218 106ft 0kts
30-Jan-21 19:21 33.797887 -118.336012 25 106ft 6kts
30-Jan-21 19:22 33.798036 -118.334782 113 106ft 7kts
30-Jan-21 19:23 33.799239 -118.333383 37 106ft 0kts
30-Jan-21 19:24 33.800461 -118.334234 305 106ft 38kts
30-Jan-21 19:25 33.812777 -118.352869 308 923ft 85kts
30-Jan-21 19:26 33.827292 -118.374524 308 1631ft 83kts
30-Jan-21 19:27 33.842754 -118.397606 308 2541ft 90kts
30-Jan-21 19:28 33.858486 -118.421099 308 3428ft 90kts
30-Jan-21 19:29 33.866838 -118.446791 209 4015ft 105kts
30-Jan-21 19:30 33.834799 -118.444774 173 4000ft 120kts
30-Jan-21 19:31 33.801564 -118.445006 182 3993ft 114kts
30-Jan-21 19:32 33.771351 -118.447178 183 3998ft 106kts
30-Jan-21 19:33 33.759432 -118.435077 3 3998ft 95kts
30-Jan-21 19:34 33.785627 -118.442071 342 3999ft 97kts
30-Jan-21 19:35 33.812256 -118.445401 2 4000ft 97kts
30-Jan-21 19:36 33.839276 -118.443801 2 3999ft 97kts
30-Jan-21 19:37 33.866423 -118.442192 2 4000ft 97kts
30-Jan-21 19:38 33.893457 -118.440590 2 4000ft 97kts
30-Jan-21 19:39 33.920484 -118.438988 2 4000ft 97kts
30-Jan-21 19:40 33.947618 -118.437379 2 4000ft 97kts
30-Jan-21 19:41 33.974190 -118.442964 345 4000ft 97kts
30-Jan-21 19:42 34.000160 -118.452055 338 4000ft 97kts
30-Jan-21 19:43 34.023495 -118.468208 322 4000ft 97kts
30-Jan-21 19:44 34.045069 -118.487920 322 3999ft 97kts
30-Jan-21 19:45 34.066726 -118.507714 322 4000ft 97kts
30-Jan-21 19:46 34.088277 -118.527416 322 4000ft 97kts
30-Jan-21 19:47 34.103143 -118.553509 292 4001ft 97kts
30-Jan-21 19:48 34.113694 -118.583744 292 3999ft 97kts
30-Jan-21 19:49 34.124197 -118.613847 292 4000ft 97kts
30-Jan-21 19:50 34.134702 -118.643957 292 4000ft 97kts
30-Jan-21 19:52 34.145243 -118.674176 292 4000ft 97kts
30-Jan-21 19:53 34.155745 -118.704286 292 4000ft 97kts
30-Jan-21 19:54 34.166252 -118.734414 292 4000ft 97kts
30-Jan-21 19:55 34.175326 -118.765212 282 4000ft 97kts
30-Jan-21 19:56 34.181447 -118.797072 283 3999ft 97kts
30-Jan-21 19:57 34.187917 -118.828817 283 4000ft 97kts
30-Jan-21 19:58 34.194337 -118.860699 280 3999ft 97kts
30-Jan-21 19:59 34.198599 -118.894254 277 3763ft 109kts
30-Jan-21 20:00 34.200325 -118.928617 269 3696ft 98kts
30-Jan-21 20:01 34.199286 -118.962412 267 3495ft 109kts
30-Jan-21 20:02 34.198717 -118.999005 270 3188ft 101kts
30-Jan-21 20:03 34.199382 -119.033088 271 2899ft 106kts
30-Jan-21 20:04 34.199850 -119.069876 270 2169ft 108kts
30-Jan-21 20:04 34.199974 -119.099476 270 1644ft 101kts
30-Jan-21 20:06 34.200251 -119.136166 270 1077ft 82kts
30-Jan-21 20:07 34.200461 -119.163128 270 672ft 79kts
30-Jan-21 20:07 34.200631 -119.185530 270 325ft 81kts
30-Jan-21 20:09 34.200581 -119.211110 248 46ft 14kts
30-Jan-21 20:09 34.200336 -119.211704 239 46ft 0kts
30-Jan-21 20:11 34.200336 -119.211705 239 46ft 0kts
30-Jan-21 20:11 34.199759 -119.211430 92 46ft 11kts
30-Jan-21 20:13 34.199165 -119.208270 181 46ft 0kts

Navigation Log

Ident Type
Flight plan parsing failed, navigation log unavailable